Time;durP1;ratioP1;P1;durP2;ratioP2;P2;SDS_P1;SDS_P2;PMS_P1;PMS_P2;Temp;Humidity;BMP_temperature;BMP_pressure;BME280_temperature;BME280_humidity;BME280_pressure;Samples;Min_cycle;Max_cycle;Signal;HPM_P1;HPM_P2
2021/04/06 00:01:53;;;;;;;;;0.50;0.50;;;;;13.71;39.99;97227.63;4884166;28;101335;-79
2021/04/06 00:05:00;;;;;;;;;1.00;0.75;;;;;13.70;40.02;97228.69;4892155;28;101357;-79
2021/04/06 00:08:00;;;;;;;;;1.00;1.00;;;;;13.70;40.24;97233.28;4896005;28;102612;-79
2021/04/06 00:10:46;;;;;;;;;1.50;0.50;;;;;13.70;40.08;97230.56;4901136;28;101421;-77
2021/04/06 00:14:00;;;;;;;;;0.25;0.25;;;;;13.68;40.53;97233.56;4896491;28;102774;-78
2021/04/06 00:16:58;;;;;;;;;1.00;0.00;;;;;13.69;39.63;97247.94;4914659;28;101902;-78
2021/04/06 00:20:01;;;;;;;;;1.00;1.00;;;;;13.67;39.57;97250.94;4910370;28;101926;-78
2021/04/06 00:22:41;;;;;;;;;0.00;0.00;;;;;13.66;39.38;97241.13;4899138;28;101244;-76
2021/04/06 00:25:41;;;;;;;;;1.00;1.00;;;;;13.66;40.45;97254.72;4889998;28;101819;-78
2021/04/06 00:28:43;;;;;;;;;0.25;0.25;;;;;13.64;39.67;97258.78;4886194;28;102919;-78
2021/04/06 00:31:39;;;;;;;;;1.00;1.00;;;;;13.64;40.25;97248.72;4886417;28;104581;-77
2021/04/06 00:34:59;;;;;;;;;1.00;1.00;;;;;13.64;40.28;97256.06;4915152;28;102960;-78
2021/04/06 00:37:54;;;;;;;;;1.00;1.00;;;;;13.62;40.11;97247.31;4884006;28;102733;-78
2021/04/06 00:40:45;;;;;;;;;0.00;0.00;;;;;13.62;40.20;97250.03;4877037;28;101519;-79
2021/04/06 00:44:01;;;;;;;;;0.75;0.75;;;;;13.61;39.85;97251.09;4886558;28;102610;-76
2021/04/06 00:46:59;;;;;;;;;1.75;0.75;;;;;13.61;39.49;97267.41;4882568;28;101551;-78
2021/04/06 00:50:03;;;;;;;;;0.75;0.00;;;;;13.58;40.43;97267.91;4907100;28;101852;-79
2021/04/06 00:53:00;;;;;;;;;1.00;1.00;;;;;13.58;39.90;97257.88;4907383;28;102650;-77
2021/04/06 00:56:00;;;;;;;;;0.75;0.75;;;;;13.60;39.59;97268.50;4882150;28;103012;-79
2021/04/06 00:59:00;;;;;;;;;0.75;0.00;;;;;13.58;39.85;97267.91;4897175;28;102299;-78
2021/04/06 01:02:22;;;;;;;;;0.00;0.00;;;;;13.57;40.28;97267.09;4886411;28;101714;-76
2021/04/06 01:05:45;;;;;;;;;1.00;1.00;;;;;13.58;39.81;97266.03;4867058;29;101547;-76
2021/04/06 01:09:00;;;;;;;;;1.00;1.00;;;;;13.53;39.36;97257.81;4872169;28;103642;-78
2021/04/06 01:12:01;;;;;;;;;0.00;0.00;;;;;13.55;40.48;97279.28;4851033;28;101652;-78
2021/04/06 01:15:09;;;;;;;;;0.75;0.75;;;;;13.54;40.00;97272.22;4865267;28;102570;-77
2021/04/06 01:18:29;;;;;;;;;1.00;0.00;;;;;13.54;40.11;97277.66;4867790;29;101825;-78
2021/04/06 01:21:53;;;;;;;;;0.75;0.00;;;;;13.53;40.06;97276.81;4866273;29;104782;-76
2021/04/06 01:25:15;;;;;;;;;1.50;1.50;;;;;13.51;39.72;97286.31;4866095;28;101702;-78
2021/04/06 01:28:40;;;;;;;;;2.00;1.00;;;;;13.51;39.97;97283.59;4868661;28;102304;-77
2021/04/06 01:31:51;;;;;;;;;0.00;0.00;;;;;13.51;39.37;97276.25;4870079;28;101638;-75
2021/04/06 01:35:05;;;;;;;;;1.00;1.00;;;;;13.51;39.50;97267.28;4872459;28;102516;-76
2021/04/06 01:38:19;;;;;;;;;0.00;0.00;;;;;13.48;39.76;97265.88;4871378;29;101577;-77
2021/04/06 01:41:39;;;;;;;;;0.50;0.50;;;;;13.49;40.24;97239.56;4867722;29;101477;-77
2021/04/06 01:44:48;;;;;;;;;0.00;0.00;;;;;13.48;39.24;97248.78;4872183;29;101817;-76
2021/04/06 01:48:00;;;;;;;;;1.00;1.00;;;;;13.48;40.26;97251.50;4867823;29;105104;-78
2021/04/06 01:51:00;;;;;;;;;0.25;0.25;;;;;13.45;40.23;97258.25;4873395;28;101661;-76
2021/04/06 01:54:04;;;;;;;;;0.25;0.25;;;;;13.46;39.80;97262.63;4885819;28;102002;-76
2021/04/06 01:57:09;;;;;;;;;1.00;1.00;;;;;13.46;40.23;97272.66;4864776;29;101662;-78
2021/04/06 02:04:00;;;;;;;;;0.00;0.00;;;;;13.46;39.54;97281.63;4871048;28;101941;-77
2021/04/06 02:06:53;;;;;;;;;2.00;0.00;;;;;13.44;39.53;97277.50;4901489;28;102238;-75
2021/04/06 02:10:02;;;;;;;;;1.00;0.75;;;;;13.43;39.97;97292.97;4907340;28;102394;-78
2021/04/06 02:13:23;;;;;;;;;1.25;1.00;;;;;13.43;39.32;97287.53;4881663;28;102702;-78
2021/04/06 02:16:54;;;;;;;;;1.25;1.00;;;;;13.40;39.92;97271.75;4903899;28;101674;-78
2021/04/06 02:19:49;;;;;;;;;0.50;0.00;;;;;13.42;40.07;97277.75;4895938;28;101459;-76
2021/04/06 02:22:52;;;;;;;;;0.00;0.00;;;;;13.40;40.09;97288.88;4883186;28;101376;-77
2021/04/06 02:26:00;;;;;;;;;1.25;0.00;;;;;13.40;40.24;97277.19;4881935;28;102368;-78
2021/04/06 02:28:51;;;;;;;;;0.00;0.00;;;;;13.40;40.12;97286.16;4902087;28;101340;-76
2021/04/06 02:32:00;;;;;;;;;0.50;0.50;;;;;13.37;39.77;97289.34;4893276;28;101790;-77
2021/04/06 02:35:04;;;;;;;;;0.00;0.00;;;;;13.36;39.69;97304.03;4858993;28;102306;-78
2021/04/06 02:38:04;;;;;;;;;0.00;0.00;;;;;13.38;39.30;97296.44;4888894;28;102028;-76
2021/04/06 02:42:00;;;;;;;;;0.00;0.00;;;;;13.38;39.11;97290.19;4895963;28;101725;-77
2021/04/06 02:45:27;;;;;;;;;0.00;0.00;;;;;13.38;39.96;97311.91;4898799;28;101300;-77
2021/04/06 02:49:01;;;;;;;;;0.50;0.50;;;;;13.36;39.41;97316.78;4887798;28;101604;-76
2021/04/06 02:52:04;;;;;;;;;1.00;0.00;;;;;13.34;39.20;97327.88;4895789;28;101818;-78
2021/04/06 02:55:10;;;;;;;;;0.75;0.00;;;;;13.33;39.89;97317.25;4885587;28;101608;-76
2021/04/06 02:58:22;;;;;;;;;0.00;0.00;;;;;13.31;40.02;97314.81;4893303;28;101507;-78
2021/04/06 03:01:46;;;;;;;;;0.00;0.00;;;;;13.34;39.25;97327.88;4883774;28;101763;-78
2021/04/06 03:04:56;;;;;;;;;0.00;0.00;;;;;13.32;40.17;97330.03;4888781;28;102513;-76
2021/04/06 03:07:48;;;;;;;;;0.00;0.00;;;;;13.29;39.41;97335.94;4905102;28;102396;-77
2021/04/06 03:11:17;;;;;;;;;1.00;1.00;;;;;13.29;40.08;97351.41;4894786;28;101657;-78
2021/04/06 03:14:41;;;;;;;;;0.00;0.00;;;;;13.31;39.69;97360.97;4885781;28;101531;-77
2021/04/06 03:18:00;;;;;;;;;0.00;0.00;;;;;13.29;39.85;97352.25;4885838;28;104052;-76
2021/04/06 03:21:38;;;;;;;;;1.00;1.00;;;;;13.29;40.07;97367.69;4877646;28;102021;-77
2021/04/06 03:24:51;;;;;;;;;0.50;0.00;;;;;13.28;39.92;97361.44;4888957;28;101654;-77
2021/04/06 03:28:19;;;;;;;;;0.00;0.00;;;;;13.27;39.82;97359.81;4875842;28;101613;-78
2021/04/06 03:31:42;;;;;;;;;1.00;0.00;;;;;13.28;39.20;97352.50;4882504;28;101840;-76
2021/04/06 03:35:01;;;;;;;;;0.00;0.00;;;;;13.25;39.99;97332.09;4892351;28;101499;-78
2021/04/06 03:38:01;;;;;;;;;0.25;0.25;;;;;13.25;39.23;97334.81;4887555;28;101696;-78
2021/04/06 03:41:24;;;;;;;;;0.75;0.00;;;;;13.25;40.13;97342.13;4887395;28;101736;-78
2021/04/06 03:44:52;;;;;;;;;0.00;0.00;;;;;13.23;38.99;97333.44;4885236;28;102548;-76
2021/04/06 03:47:57;;;;;;;;;0.00;0.00;;;;;13.24;39.77;97354.88;4897602;28;101221;-76
2021/04/06 03:50:55;;;;;;;;;0.00;0.00;;;;;13.22;39.93;97351.59;4881461;28;101842;-77
2021/04/06 03:54:00;;;;;;;;;0.00;0.00;;;;;13.22;39.39;97348.06;4885163;28;103525;-78
2021/04/06 03:56:56;;;;;;;;;0.25;0.25;;;;;13.21;38.95;97363.53;4903864;28;103711;-76
2021/04/06 04:00:13;;;;;;;;;0.00;0.00;;;;;13.21;40.00;97359.97;4894655;28;101967;-77
2021/04/06 04:03:36;;;;;;;;;1.00;0.00;;;;;13.20;39.05;97358.31;4884081;28;101795;-78
2021/04/06 04:07:04;;;;;;;;;1.00;0.00;;;;;13.18;39.37;97360.47;4888672;28;101960;-76
2021/04/06 04:10:01;;;;;;;;;1.00;0.00;;;;;13.19;39.67;97362.13;4909410;28;102275;-76
2021/04/06 04:13:01;;;;;;;;;0.00;0.00;;;;;13.19;39.84;97360.22;4899783;28;101753;-78
2021/04/06 04:16:00;;;;;;;;;0.00;0.00;;;;;13.14;39.65;97354.75;4895585;28;102024;-76
2021/04/06 04:19:01;;;;;;;;;0.00;0.00;;;;;13.14;39.37;97368.31;4896979;28;102931;-78
2021/04/06 04:22:02;;;;;;;;;0.00;0.00;;;;;13.16;38.92;97368.03;4897678;28;102120;-76
2021/04/06 04:25:06;;;;;;;;;0.25;0.00;;;;;13.16;39.46;97371.59;4883104;28;103480;-77
2021/04/06 04:28:01;;;;;;;;;0.75;0.00;;;;;13.13;39.70;97372.09;4899129;28;102569;-78
2021/04/06 04:30:51;;;;;;;;;0.00;0.00;;;;;13.14;39.13;97376.44;4884308;28;101457;-78
2021/04/06 04:34:01;;;;;;;;;0.00;0.00;;;;;13.14;40.05;97376.44;4896281;28;101645;-78
2021/04/06 04:37:01;;;;;;;;;0.00;0.00;;;;;13.10;39.79;97367.13;4883549;28;101673;-77
2021/04/06 04:40:01;;;;;;;;;1.00;0.00;;;;;13.14;39.30;97368.31;4894089;28;102794;-78
2021/04/06 04:43:00;;;;;;;;;0.00;0.00;;;;;13.11;39.82;97348.97;4883082;28;101491;-78
2021/04/06 04:45:58;;;;;;;;;1.00;1.00;;;;;13.13;39.09;97368.53;4883859;28;102565;-78
2021/04/06 04:48:48;;;;;;;;;0.00;0.00;;;;;13.11;39.44;97367.97;4888130;28;102958;-78
2021/04/06 04:51:40;;;;;;;;;0.00;0.00;;;;;13.12;39.63;97383.19;4909683;28;101331;-78
2021/04/06 04:54:53;;;;;;;;;0.00;0.00;;;;;13.10;39.48;97371.72;4895880;28;101216;-77
2021/04/06 04:58:00;;;;;;;;;0.25;0.00;;;;;13.10;39.67;97385.31;4899108;28;102779;-78
2021/04/06 05:00:50;;;;;;;;;0.00;0.00;;;;;13.09;39.68;97398.03;4918856;28;102483;-78
2021/04/06 05:03:49;;;;;;;;;1.00;0.00;;;;;13.11;39.76;97395.91;4883845;28;101827;-78
2021/04/06 05:06:48;;;;;;;;;1.00;0.00;;;;;13.10;39.09;97410.56;4880292;28;101821;-76
2021/04/06 05:09:43;;;;;;;;;0.00;0.00;;;;;13.10;39.04;97407.00;4888442;28;103238;-77
2021/04/06 05:12:40;;;;;;;;;1.00;0.00;;;;;13.09;39.84;97403.47;4881532;28;101758;-79
2021/04/06 05:15:44;;;;;;;;;0.00;0.00;;;;;13.10;39.24;97418.69;4896091;28;101882;-76
2021/04/06 05:19:00;;;;;;;;;0.00;0.00;;;;;13.11;39.88;97427.66;4896700;28;101187;-78
2021/04/06 05:22:00;;;;;;;;;0.00;0.00;;;;;13.11;39.86;97424.94;4907944;28;103076;-79
2021/04/06 05:25:02;;;;;;;;;1.00;0.00;;;;;13.11;39.23;97431.19;4901408;28;101382;-78
2021/04/06 05:27:50;;;;;;;;;0.00;0.00;;;;;13.09;40.01;97408.06;4882768;28;101651;-78
2021/04/06 05:31:35;;;;;;;;;0.00;0.00;;;;;13.10;39.21;97421.41;4893478;28;103622;-79
2021/04/06 05:34:32;;;;;;;;;1.00;0.25;;;;;13.10;40.11;97407.84;4898979;28;101753;-78
2021/04/06 05:37:50;;;;;;;;;0.75;0.00;;;;;13.11;39.17;97404.06;4900402;28;101231;-79
2021/04/06 05:41:04;;;;;;;;;0.00;0.00;;;;;13.11;39.62;97408.66;4897814;28;101763;-79
2021/04/06 05:44:02;;;;;;;;;0.00;0.00;;;;;13.10;39.92;97407.84;4887223;28;103050;-78
2021/04/06 05:46:55;;;;;;;;;1.00;0.00;;;;;13.09;39.24;97422.47;4881173;28;103041;-78
2021/04/06 05:49:49;;;;;;;;;0.00;0.00;;;;;13.10;39.80;97418.69;4909045;28;102066;-79
2021/04/06 05:52:41;;;;;;;;;0.00;0.00;;;;;13.10;39.19;97423.28;4909313;28;101561;-77
2021/04/06 05:56:03;;;;;;;;;0.00;0.00;;;;;13.08;39.54;97420.00;4894156;28;101821;-78
2021/04/06 05:59:01;;;;;;;;;0.00;0.00;;;;;13.07;39.54;97419.16;4898675;28;101947;-78
2021/04/06 06:01:59;;;;;;;;;0.00;0.00;;;;;13.03;39.34;97401.72;4889527;28;102581;-78
2021/04/06 06:04:58;;;;;;;;;0.00;0.00;;;;;13.08;39.27;97417.28;4906370;28;101765;-79
2021/04/06 06:08:07;;;;;;;;;0.00;0.00;;;;;13.08;39.16;97414.56;4896222;28;102647;-79
2021/04/06 06:11:14;;;;;;;;;0.00;0.00;;;;;13.08;38.94;97423.53;4904655;28;102483;-79
2021/04/06 06:15:00;;;;;;;;;0.00;0.00;;;;;13.07;39.55;97434.63;4895669;28;101747;-79
2021/04/06 06:18:20;;;;;;;;;0.00;0.00;;;;;13.07;39.14;97426.47;4896150;28;101672;-78
2021/04/06 06:21:37;;;;;;;;;0.00;0.00;;;;;13.07;39.73;97430.03;4896556;28;101558;-78
2021/04/06 06:24:57;;;;;;;;;0.00;0.00;;;;;13.07;39.13;97431.91;4894253;28;104821;-79
2021/04/06 06:28:17;;;;;;;;;0.00;0.00;;;;;13.06;39.19;97428.38;4894228;28;101624;-79
2021/04/06 06:31:34;;;;;;;;;0.00;0.00;;;;;13.05;38.80;97421.31;4889904;28;102647;-78
2021/04/06 06:34:54;;;;;;;;;0.00;0.00;;;;;13.06;38.88;97427.56;4891905;28;101436;-79
2021/04/06 06:38:00;;;;;;;;;0.00;0.00;;;;;13.04;38.88;97397.13;4892556;28;104787;-79
2021/04/06 06:41:25;;;;;;;;;1.00;0.00;;;;;13.05;38.93;97415.06;4885524;28;102292;-79
2021/04/06 06:44:56;;;;;;;;;1.00;0.00;;;;;13.06;39.67;97422.94;4907035;28;101494;-79
2021/04/06 06:47:45;;;;;;;;;1.25;1.00;;;;;13.05;39.65;97432.16;4893867;28;102554;-79
2021/04/06 06:50:59;;;;;;;;;0.25;0.25;;;;;13.05;39.03;97410.47;4902357;28;106342;-78
2021/04/06 06:53:59;;;;;;;;;1.00;1.00;;;;;13.06;39.58;97419.44;4900799;28;101849;-79
2021/04/06 06:56:59;;;;;;;;;0.00;0.00;;;;;13.04;39.08;97419.66;4878907;28;101577;-79
2021/04/06 07:00:00;;;;;;;;;1.00;0.25;;;;;13.05;39.04;97409.63;4889430;28;103590;-79
2021/04/06 07:02:44;;;;;;;;;1.00;0.00;;;;;13.05;39.75;97406.91;4877890;28;104225;-79
2021/04/06 07:05:56;;;;;;;;;0.50;0.50;;;;;13.07;39.00;97402.06;4878763;28;102703;-79
2021/04/06 07:09:01;;;;;;;;;0.75;0.00;;;;;13.05;38.74;97410.47;4860376;28;101465;-78
2021/04/06 07:12:05;;;;;;;;;0.75;0.00;;;;;13.07;39.64;97413.72;4908155;28;103116;-79
2021/04/06 07:15:04;;;;;;;;;0.00;0.00;;;;;13.07;39.02;97418.34;4880208;28;101477;-78
2021/04/06 07:18:07;;;;;;;;;0.00;0.00;;;;;13.07;38.70;97418.34;4879140;28;101705;-79
2021/04/06 07:21:26;;;;;;;;;2.00;1.00;;;;;13.06;39.72;97428.38;4902922;28;102021;-79
2021/04/06 07:24:41;;;;;;;;;1.00;1.00;;;;;13.05;39.08;97434.88;4888171;28;101336;-79
2021/04/06 07:27:49;;;;;;;;;0.75;0.75;;;;;13.05;38.76;97434.06;4883262;28;105051;-79
2021/04/06 07:31:03;;;;;;;;;1.00;0.00;;;;;13.06;39.35;97433.00;4917124;28;101699;-79
2021/04/06 07:34:01;;;;;;;;;1.00;1.00;;;;;13.05;38.93;97432.16;4891775;28;101690;-79
2021/04/06 07:37:03;;;;;;;;;0.50;0.50;;;;;13.06;39.28;97439.22;4885658;28;102514;-78
2021/04/06 07:40:06;;;;;;;;;1.00;1.00;;;;;13.07;39.33;97431.91;4899016;28;101726;-79
2021/04/06 07:43:04;;;;;;;;;1.00;1.00;;;;;13.07;39.31;97435.44;4890963;28;101437;-79
2021/04/06 07:46:22;;;;;;;;;1.00;1.00;;;;;13.09;39.01;97443.34;4886608;28;101328;-79
2021/04/06 07:49:30;;;;;;;;;0.00;0.00;;;;;13.07;39.53;97440.88;4908715;28;101463;-79
2021/04/06 07:53:17;;;;;;;;;0.75;0.75;;;;;13.08;38.58;97442.53;4904781;28;103143;-79
2021/04/06 07:57:00;;;;;;;;;1.25;0.25;;;;;13.08;39.16;97442.53;4900107;28;102212;-79
2021/04/06 07:59:38;;;;;;;;;0.00;0.00;;;;;13.08;39.34;97436.28;4892878;28;101856;-79
2021/04/06 08:02:47;;;;;;;;;2.00;0.25;;;;;13.09;38.69;97437.94;4913118;28;101544;-79
2021/04/06 08:06:01;;;;;;;;;1.00;0.00;;;;;13.08;38.55;97434.38;4885383;28;103940;-78
2021/04/06 08:09:24;;;;;;;;;2.00;1.00;;;;;13.09;38.83;97432.50;4883245;28;101477;-78
2021/04/06 08:12:59;;;;;;;;;1.00;1.00;;;;;13.09;38.74;97429.78;4885698;28;101894;-79
2021/04/06 08:16:21;;;;;;;;;2.00;1.00;;;;;13.09;39.29;97427.91;4880649;28;102991;-79
2021/04/06 08:19:56;;;;;;;;;1.00;1.00;;;;;13.11;39.22;97442.06;4890432;28;101770;-79
2021/04/06 08:22:55;;;;;;;;;1.00;1.00;;;;;13.13;39.23;97439.09;4890668;28;101960;-79
2021/04/06 08:25:35;;;;;;;;;0.00;0.00;;;;;13.14;39.04;97436.16;4889697;28;102261;-79
2021/04/06 08:28:41;;;;;;;;;1.00;1.00;;;;;13.16;38.90;97435.91;4895431;28;101759;-79
2021/04/06 08:31:42;;;;;;;;;1.00;1.00;;;;;13.16;38.56;97436.72;4872987;28;103327;-79
2021/04/06 08:34:34;;;;;;;;;1.00;0.00;;;;;13.19;38.93;97433.50;4889477;28;101542;-79
2021/04/06 08:37:57;;;;;;;;;1.00;1.00;;;;;13.17;39.30;97430.22;4881521;28;101384;-78
2021/04/06 08:41:13;;;;;;;;;0.75;0.75;;;;;13.21;39.50;97442.22;4891396;28;102436;-79
2021/04/06 08:44:05;;;;;;;;;0.25;0.25;;;;;13.19;39.37;97419.94;4880793;28;102318;-79
2021/04/06 08:47:00;;;;;;;;;1.00;1.00;;;;;13.23;38.51;97429.25;4869951;28;101906;-79
2021/04/06 08:49:53;;;;;;;;;1.00;1.00;;;;;13.24;39.58;97424.63;4881116;28;103022;-78
2021/04/06 08:53:11;;;;;;;;;1.25;1.00;;;;;13.25;38.68;97418.13;4898819;28;101458;-78
2021/04/06 08:56:23;;;;;;;;;0.75;0.75;;;;;13.26;39.16;97414.34;4866464;28;102306;-78
2021/04/06 09:00:00;;;;;;;;;2.75;1.00;;;;;13.25;39.16;97415.41;4888301;28;101932;-79
2021/04/06 09:02:49;;;;;;;;;1.00;1.00;;;;;13.27;38.38;97413.28;4885793;28;101956;-79
2021/04/06 09:06:02;;;;;;;;;1.00;1.00;;;;;13.28;38.42;97404.09;4882878;28;101669;-79
2021/04/06 09:09:02;;;;;;;;;0.00;0.00;;;;;13.29;38.47;97405.69;4895121;28;102485;-79
2021/04/06 09:11:47;;;;;;;;;1.00;1.00;;;;;13.27;38.70;97392.41;4876325;28;102753;-79
2021/04/06 09:14:45;;;;;;;;;0.50;0.50;;;;;13.27;38.31;97395.13;4878299;28;102203;-79
2021/04/06 09:18:01;;;;;;;;;1.00;1.00;;;;;13.29;38.58;97390.25;4892058;28;101718;-79
2021/04/06 09:21:35;;;;;;;;;1.00;1.00;;;;;13.30;39.23;97391.88;4891491;28;102440;-78
2021/04/06 09:24:50;;;;;;;;;0.00;0.00;;;;;13.31;38.88;97376.44;4886659;28;101504;-79
2021/04/06 09:28:02;;;;;;;;;2.25;1.00;;;;;13.30;38.79;97381.03;4888656;28;103708;-79
2021/04/06 09:31:10;;;;;;;;;1.50;1.25;;;;;13.30;38.80;97378.31;4889164;28;102788;-79
2021/04/06 09:34:08;;;;;;;;;1.00;1.00;;;;;13.30;38.93;97391.88;4873249;28;101910;-79
2021/04/06 09:37:00;;;;;;;;;1.00;1.00;;;;;13.31;38.09;97385.41;4880580;28;101899;-79
2021/04/06 09:40:00;;;;;;;;;2.00;1.00;;;;;13.33;39.16;97388.66;4880245;28;101233;-78
2021/04/06 09:43:26;;;;;;;;;1.50;1.00;;;;;13.35;39.25;97391.16;4888915;28;101872;-79
2021/04/06 09:46:27;;;;;;;;;1.50;1.00;;;;;13.36;39.12;97388.19;4889243;28;104908;-79
2021/04/06 09:49:29;;;;;;;;;1.00;1.00;;;;;13.34;38.30;97389.50;4895419;28;102179;-79
2021/04/06 09:52:54;;;;;;;;;1.00;1.00;;;;;13.35;38.44;97394.69;4858149;28;101970;-79
2021/04/06 09:56:04;;;;;;;;;2.00;2.00;;;;;13.35;38.55;97405.56;4883973;28;101966;-79
2021/04/06 09:59:01;;;;;;;;;1.75;1.75;;;;;13.35;38.50;97410.97;4880635;28;102579;-79
2021/04/06 10:01:48;;;;;;;;;0.50;0.50;;;;;13.36;38.45;97415.34;4865869;28;101804;-79
2021/04/06 10:04:56;;;;;;;;;1.00;1.00;;;;;13.36;38.61;97420.78;4871686;28;101630;-79
2021/04/06 10:08:10;;;;;;;;;0.00;0.00;;;;;13.36;38.94;97418.06;4884781;28;101793;-79
2021/04/06 10:10:51;;;;;;;;;0.75;0.75;;;;;13.38;38.68;97423.22;4888795;28;102765;-79
2021/04/06 10:14:00;;;;;;;;;1.25;1.25;;;;;13.38;38.06;97415.91;4858930;28;101320;-79
2021/04/06 10:16:42;;;;;;;;;1.50;1.00;;;;;13.39;38.33;97420.28;4888508;28;101739;-79
2021/04/06 10:19:42;;;;;;;;;1.00;1.00;;;;;13.39;38.00;97427.59;4879752;28;101822;-79
2021/04/06 10:22:51;;;;;;;;;0.50;0.00;;;;;13.40;39.01;97421.94;4880188;28;103812;-79
2021/04/06 10:25:49;;;;;;;;;1.25;1.00;;;;;13.41;38.20;97420.03;4888905;28;101504;-79
2021/04/06 10:28:45;;;;;;;;;1.00;1.00;;;;;13.42;38.09;97410.00;4878222;28;101421;-78
2021/04/06 10:32:04;;;;;;;;;2.00;1.00;;;;;13.42;38.17;97408.06;4885122;28;101906;-79
2021/04/06 10:35:40;;;;;;;;;2.00;1.00;;;;;13.41;37.98;97403.75;4887350;28;103168;-78
2021/04/06 10:38:50;;;;;;;;;2.00;2.00;;;;;13.43;38.94;97395.34;4889743;28;101964;-78
2021/04/06 10:42:01;;;;;;;;;1.00;1.00;;;;;13.43;38.61;97392.63;4867408;28;101277;-78
2021/04/06 10:45:16;;;;;;;;;1.50;1.50;;;;;13.40;38.20;97402.91;4884567;28;101782;-78
2021/04/06 10:48:18;;;;;;;;;3.00;2.00;;;;;13.44;38.49;97403.25;4882264;28;102029;-79
2021/04/06 10:51:44;;;;;;;;;2.75;2.00;;;;;13.45;38.83;97404.06;4881639;28;102517;-78
2021/04/06 10:54:30;;;;;;;;;2.50;2.00;;;;;13.45;38.29;97388.59;4882896;28;103027;-79
2021/04/06 10:57:57;;;;;;;;;1.25;1.25;;;;;13.46;38.04;97373.97;4886397;28;101698;-78
2021/04/06 11:00:44;;;;;;;;;3.25;2.00;;;;;13.46;38.81;97381.28;4892132;28;102795;-79
2021/04/06 11:03:50;;;;;;;;;1.00;1.00;;;;;13.48;37.92;97387.25;4875655;28;101594;-79
2021/04/06 11:06:59;;;;;;;;;1.50;1.00;;;;;13.48;38.56;97379.94;4866418;28;104036;-78
2021/04/06 11:10:04;;;;;;;;;2.75;1.50;;;;;13.48;37.84;97384.53;4873617;28;102533;-79
2021/04/06 11:13:44;;;;;;;;;3.00;2.50;;;;;13.50;38.70;97382.41;4863258;28;101998;-79
2021/04/06 11:16:48;;;;;;;;;2.00;2.00;;;;;13.49;38.52;97375.34;4876474;28;102646;-79
2021/04/06 11:19:43;;;;;;;;;1.50;1.25;;;;;13.50;38.63;97374.28;4871371;28;101478;-79
2021/04/06 11:22:36;;;;;;;;;3.00;2.50;;;;;13.53;37.83;97380.03;4844874;29;102167;-79
2021/04/06 11:25:44;;;;;;;;;3.00;2.00;;;;;13.54;38.24;97386.28;4864901;28;102443;-79
2021/04/06 11:29:13;;;;;;;;;1.00;1.00;;;;;13.54;38.68;97381.66;4876571;28;101679;-79
2021/04/06 11:32:37;;;;;;;;;2.00;1.25;;;;;13.56;37.61;97384.13;4866145;28;101803;-79
2021/04/06 11:36:01;;;;;;;;;2.25;1.00;;;;;13.57;37.93;97380.34;4876986;28;101556;-79
2021/04/06 11:39:18;;;;;;;;;1.25;1.00;;;;;13.58;37.64;97373.84;4869949;29;102274;-78
2021/04/06 11:42:44;;;;;;;;;1.50;1.00;;;;;13.59;38.71;97372.78;4867941;28;101969;-79
2021/04/06 11:45:44;;;;;;;;;1.50;1.50;;;;;13.58;38.45;97350.22;4871224;28;101890;-79
2021/04/06 11:48:44;;;;;;;;;2.00;2.00;;;;;13.64;38.78;97359.28;4870798;28;101714;-79
2021/04/06 11:51:44;;;;;;;;;1.00;1.00;;;;;13.64;38.63;97364.69;4871442;28;103170;-79
2021/04/06 11:55:00;;;;;;;;;1.00;1.00;;;;;13.64;37.79;97370.13;4874490;28;102637;-79
2021/04/06 11:57:49;;;;;;;;;1.25;1.00;;;;;13.65;37.51;97359.00;4864749;29;101978;-78
2021/04/06 12:01:11;;;;;;;;;2.00;2.00;;;;;13.64;38.35;97354.66;4854336;29;101707;-79
2021/04/06 12:04:03;;;;;;;;;2.00;1.00;;;;;13.67;37.79;97353.31;4867460;28;102013;-79
2021/04/06 12:07:03;;;;;;;;;2.00;2.00;;;;;13.68;37.42;97355.81;4885629;28;102120;-79
2021/04/06 12:10:17;;;;;;;;;1.00;1.00;;;;;13.73;38.32;97346.91;4881760;28;102215;-78
2021/04/06 12:13:23;;;;;;;;;2.00;1.00;;;;;13.77;37.66;97342.59;4880990;28;103568;-79
2021/04/06 12:16:57;;;;;;;;;1.50;1.00;;;;;13.78;38.14;97344.22;4897193;28;102688;-78
2021/04/06 12:19:50;;;;;;;;;1.75;1.75;;;;;13.78;37.80;97338.78;4897254;28;101763;-78
2021/04/06 12:22:48;;;;;;;;;1.00;1.00;;;;;13.79;37.91;97329.56;4891988;28;102454;-79
2021/04/06 12:25:50;;;;;;;;;2.00;1.25;;;;;13.80;38.17;97339.38;4890796;28;101431;-78
2021/04/06 12:28:34;;;;;;;;;1.00;1.00;;;;;13.79;37.14;97324.97;4894652;28;102844;-78
2021/04/06 12:31:35;;;;;;;;;2.00;2.00;;;;;13.84;37.66;97322.31;4882108;28;103328;-79
2021/04/06 12:34:40;;;;;;;;;1.00;0.75;;;;;13.89;37.24;97320.72;4892717;28;101800;-79
2021/04/06 12:37:43;;;;;;;;;0.75;0.75;;;;;13.93;37.73;97305.56;4885295;28;104109;-79
2021/04/06 12:40:31;;;;;;;;;1.00;1.00;;;;;13.93;37.46;97309.09;4904662;28;102133;-79
2021/04/06 12:43:36;;;;;;;;;0.00;0.00;;;;;13.94;37.46;97305.31;4883574;28;101046;-79
2021/04/06 12:46:33;;;;;;;;;1.00;1.00;;;;;13.99;37.33;97299.13;4902407;28;102818;-79
2021/04/06 12:49:45;;;;;;;;;2.75;2.00;;;;;14.01;37.95;97303.22;4884672;28;102075;-79
2021/04/06 12:52:30;;;;;;;;;1.00;1.00;;;;;14.05;38.00;97306.25;4888620;28;103229;-79
2021/04/06 12:55:36;;;;;;;;;1.00;1.00;;;;;14.08;38.03;97312.00;4876310;28;102162;-79
2021/04/06 12:58:43;;;;;;;;;1.00;1.00;;;;;14.09;37.92;97308.22;4896689;28;101901;-79
2021/04/06 13:01:58;;;;;;;;;1.25;1.00;;;;;14.10;37.17;97306.28;4894090;28;102098;-79
2021/04/06 13:04:53;;;;;;;;;1.00;1.00;;;;;14.11;37.89;97299.78;4891905;28;101849;-79
2021/04/06 13:07:59;;;;;;;;;1.00;1.00;;;;;14.12;37.43;97301.44;4892747;28;101324;-79
2021/04/06 13:10:44;;;;;;;;;1.00;1.00;;;;;14.15;37.79;97299.03;4892298;28;102109;-79
2021/04/06 13:14:01;;;;;;;;;1.00;1.00;;;;;14.18;36.97;97290.34;4884068;28;101826;-79
2021/04/06 13:16:56;;;;;;;;;0.75;0.00;;;;;14.20;37.34;97303.69;4883373;28;104009;-78
2021/04/06 13:19:45;;;;;;;;;1.00;1.00;;;;;14.24;37.75;97299.38;4876090;28;101883;-78
2021/04/06 13:22:49;;;;;;;;;0.00;0.00;;;;;14.26;36.82;97299.97;4878874;28;101594;-79
2021/04/06 13:25:50;;;;;;;;;1.25;0.00;;;;;14.27;37.20;97288.00;4882863;28;101767;-78
2021/04/06 13:28:38;;;;;;;;;1.00;0.00;;;;;14.28;37.78;97290.47;4891915;28;103145;-79
2021/04/06 13:31:42;;;;;;;;;0.00;0.00;;;;;14.28;37.20;97293.16;4875388;28;102444;-79
2021/04/06 13:34:42;;;;;;;;;1.00;1.00;;;;;14.32;37.65;97290.75;4891295;28;102254;-79
2021/04/06 13:37:42;;;;;;;;;0.00;0.00;;;;;14.34;37.69;97301.38;4887319;28;102718;-78
2021/04/06 13:40:35;;;;;;;;;1.00;0.50;;;;;14.32;37.13;97299.75;4887318;28;106354;-78
2021/04/06 13:43:39;;;;;;;;;0.25;0.00;;;;;14.32;37.81;97298.13;4883324;28;101865;-79
2021/04/06 13:46:50;;;;;;;;;1.00;1.00;;;;;14.32;36.91;97300.84;4869891;28;101750;-79
2021/04/06 13:49:58;;;;;;;;;1.00;1.00;;;;;14.30;37.52;97293.75;4873349;28;101755;-79
2021/04/06 13:52:30;;;;;;;;;1.00;0.50;;;;;14.36;37.59;97291.94;4876542;28;104812;-80
2021/04/06 13:55:13;;;;;;;;;2.75;1.00;;;;;14.35;37.28;97290.25;4864061;28;102079;-80
2021/04/06 13:58:02;;;;;;;;;1.00;1.00;;;;;14.36;37.50;97293.84;4888248;28;102251;-79
2021/04/06 14:00:48;;;;;;;;;0.00;0.00;;;;;14.36;36.90;97291.13;4865992;28;102300;-80
2021/04/06 14:03:29;;;;;;;;;1.75;1.00;;;;;14.39;36.85;97287.88;4824688;28;104543;-80
2021/04/06 14:06:08;;;;;;;;;1.75;1.00;;;;;14.40;37.41;97287.63;4850735;28;101996;-79
2021/04/06 14:08:55;;;;;;;;;1.00;1.00;;;;;14.45;36.94;97279.53;4848768;28;102211;-80
2021/04/06 14:11:46;;;;;;;;;0.00;0.00;;;;;14.48;36.47;97280.91;4874095;28;101945;-86
2021/04/06 14:14:50;;;;;;;;;1.75;1.00;;;;;14.50;37.42;97276.03;4884992;28;102520;-80
2021/04/06 14:17:56;;;;;;;;;1.50;0.50;;;;;14.55;37.16;97278.78;4892473;28;101630;-79
2021/04/06 14:20:48;;;;;;;;;1.00;0.25;;;;;14.61;37.93;97275.03;4881732;28;102089;-78
2021/04/06 14:23:50;;;;;;;;;1.00;1.00;;;;;14.63;38.01;97270.16;4891648;28;101344;-77
2021/04/06 14:27:01;;;;;;;;;0.25;0.25;;;;;14.66;37.59;97256.03;4886996;28;105353;-77
2021/04/06 14:30:10;;;;;;;;;0.00;0.00;;;;;14.66;37.73;97248.69;4889151;28;101371;-77